• Join FlightAware (Why Join?)
  • Login
  • US Flag 
12:55PM EDT


 

Airport Tracker/Info


-or-


 

Live Flight TrackerFlight Track Log ✈ TGW275 ✈ 21-Jun-2013 ✈ YCFS - YSSY / SYD

Flight Track Log - Related Links

Times and Time Zones

All times are in EDT time to prevent confusion due to time zone crossing. See the TGW275 flight status page for this flight to view local times or setup timezone preferences in your user account.

Time Position Orientation Groundspeed Altitude Reporting Facility
EDT Latitude Longitude Course Direction KTS MPH feet Rate Location/Type
02:51AM -30.3122 153.1172 222° Southwest 19,000  Level Aus ATC (Calculated)
02:52AM -30.3733 153.0495 221° Southwest 19,000 -2,820 Level Aus ATC (Calculated)
02:52AM -30.4343 152.9817 217° Southwest 19,000 -3,780 Level Aus ATC (Calculated)
02:53AM -30.4343 152.9817 217° Southwest 19,000 -4,920 Level Aus ATC (Calculated)
02:54AM -30.4953 152.9138 58° Northeast 19,000 -6,360 Level Aus ATC (Calculated)
02:54AM -30.4805 152.9414 227° Southwest 461 531 9,200 -4,980 Descending Aus ATC (RADAR)
02:55AM -30.5342 152.8753 227° Southwest 299 344 11,100 2,160 Climbing Aus ATC (RADAR)
02:56AM -30.5732 152.8285 226° Southwest 338 389 12,700 2,220 Climbing Aus ATC (RADAR)
02:57AM -30.6213 152.7773 223° Southwest 350 403 14,500 1,980 Climbing Aus ATC (RADAR)
02:57AM -30.6755 152.7150 225° Southwest 367 422 15,700 2,340 Climbing Aus ATC (RADAR)
03:00AM -30.8598 152.5034 225° Southwest 388 447 21,500 2,280 Climbing Aus ATC (RADAR)
03:01AM -30.9881 152.3568 224° Southwest 412 474 24,500 1,800 Climbing Aus ATC (RADAR)
03:01AM -31.0110 152.3320 224° Southwest 413 475 24,700 1,860 Climbing FlightAware
03:02AM -31.0810 152.2520 224° Southwest 410 472 26,700 2,160 Climbing FlightAware
03:03AM -31.1350 152.1890 225° Southwest 392 451 28,000 960 Climbing FlightAware
03:04AM -31.1870 152.1290 225° Southwest 396 456 28,000 60 Level FlightAware
03:04AM -31.2400 152.0690 224° Southwest 406 467 28,100 300 Climbing FlightAware
03:05AM -31.3010 151.9980 225° Southwest 408 470 28,500 720 Climbing FlightAware
03:06AM -31.3610 151.9290 224° Southwest 408 470 29,200 960 Climbing FlightAware
03:06AM -31.4090 151.8740 224° Southwest 406 467 29,800 780 Climbing FlightAware
03:07AM -31.4714 151.8171 224° Southwest 412 474 30,200 240 Climbing Aus ATC (RADAR)
03:07AM -31.4790 151.8150 224° Southwest 422 486 30,000  Descending FlightAware
03:08AM -31.5376 151.7908 224° Southwest 425 489 30,200  Climbing Aus ATC (RADAR)
03:08AM -31.5530 151.7830 224° Southwest 427 491 30,000 -240 Descending FlightAware
03:08AM -31.6360 151.7470 200° South 426 490 30,000 120 Level FlightAware
03:09AM -31.6947 151.7225 200° South 422 486 30,200  Climbing Aus ATC (RADAR)
03:09AM -31.7080 151.7160 200° South 416 479 30,000 -240 Descending FlightAware
03:10AM -31.7800 151.6850 200° South 415 478 30,000  Level FlightAware
03:10AM -31.8590 151.6510 200° South 415 478 30,000 120 Level FlightAware
03:10AM -31.8696 151.6474 200° South 423 487 30,100 120 Climbing Aus ATC (RADAR)
03:11AM -31.9388 151.6164 200° South 420 483 30,100 -180 Level Aus ATC (RADAR)
03:11AM -31.9420 151.6150 200° South 423 487 30,000 -180 Descending FlightAware
03:12AM -32.0240 151.5790 200° South 423 487 30,000  Level FlightAware
03:13AM -32.0950 151.5480 200° South 422 486 30,000 240 Level FlightAware
03:13AM -32.1080 151.5434 200° South 422 486 30,200  Climbing Aus ATC (RADAR)
03:13AM -32.1700 151.5160 200° South 414 476 30,000  Descending FlightAware
03:14AM -32.2453 151.4834 200° South 420 483 30,200  Climbing Aus ATC (RADAR)
03:14AM -32.2520 151.4800 200° South 414 476 30,000 -1,800 Descending FlightAware
03:15AM -32.3350 151.4440 200° South 411 473 28,700 -1,680 Descending FlightAware
03:15AM -32.4070 151.4120 201° Southwest 404 465 27,600 -1,680 Descending FlightAware
03:16AM -32.4740 151.3830 200° South 382 440 26,500 -1,800 Descending FlightAware
03:17AM -32.5510 151.3490 200° South 380 437 25,200 -1,800 Descending FlightAware
03:18AM -32.6150 151.3210 200° South 374 430 24,000 -1,860 Descending FlightAware
03:18AM -32.6860 151.2900 200° South 358 412 22,600 -1,920 Descending FlightAware
03:19AM -32.7430 151.2640 200° South 358 412 21,500 -1,620 Descending FlightAware
03:19AM -32.7560 151.2588 200° South 361 415 21,500 -1,320 Level Aus ATC (RADAR)
03:19AM -32.7942 151.2419 200° South 355 409 20,800 -1,920 Descending Aus ATC (RADAR)
03:20AM -32.8110 151.2340 200° South 342 394 20,300 -1,980 Descending FlightAware
03:21AM -32.8950 151.1970 200° South 339 390 18,600 -1,800 Descending FlightAware
03:21AM -32.9570 151.1700 200° South 332 382 17,400 -1,740 Descending FlightAware
03:22AM -33.0150 151.1440 201° Southwest 323 372 16,200 -1,740 Descending FlightAware
03:23AM -33.0760 151.1170 200° South 316 364 15,000 -1,680 Descending FlightAware
03:23AM -33.1400 151.0880 201° Southwest 307 353 13,700 -1,680 Descending FlightAware
03:24AM -33.1920 151.0650 200° South 302 348 12,700 -1,500 Descending FlightAware
03:25AM -33.2440 151.0442 200° South 290 334 11,800 -1,800 Descending Aus ATC (RADAR)
03:25AM -33.2520 151.0470 200° South 302 348 11,400 -1,860 Descending FlightAware
03:25AM -33.2990 151.0560 171° South 299 344 10,500 -1,080 Descending FlightAware
03:26AM -33.3490 151.0660 171° South 280 322 10,000 -660 Descending FlightAware
03:26AM -33.3655 151.0689 171° South 273 314 10,000 -1,140 Level Aus ATC (RADAR)
03:27AM -33.3890 151.0740 171° South 278 320 9,500 -1,320 Descending FlightAware
03:27AM -33.4240 151.0800 172° South 276 318 8,900 -1,320 Descending FlightAware
03:28AM -33.4630 151.0880 170° South 274 315 8,200 -1,320 Descending FlightAware
03:28AM -33.4770 151.0900 173° South 273 314 8,000 -780 Descending FlightAware
03:28AM -33.5120 151.0970 171° South 258 297 7,700 -720 Descending FlightAware
03:29AM -33.5320 151.1010 171° South 246 283 7,500 -720 Descending FlightAware
03:29AM -33.5741 151.0991 171° South 236 272 7,100 -1,140 Descending Aus ATC (RADAR)
03:29AM -33.5820 151.0990 171° South 234 269 6,700 -1,800 Descending FlightAware
03:30AM -33.6100 151.1010 177° South 231 266 6,100 -1,440 Descending FlightAware
03:30AM -33.6440 151.1090 169° South 237 273 5,400 -1,140 Descending FlightAware
03:31AM -33.6730 151.1180 166° South 230 265 5,000 -600 Descending FlightAware
03:31AM -33.7000 151.1250 168° South 210 242 4,900 -480 Descending FlightAware
03:32AM -33.7240 151.1310 168° South 198 228 4,600 -960 Descending FlightAware
03:32AM -33.7460 151.1360 169° South 201 231 4,100 -1,320 Descending FlightAware
03:32AM -33.7630 151.1400 169° South 194 223 3,700 -1,140 Descending FlightAware
03:33AM -33.7850 151.1460 167° South 177 204 3,200 -900 Descending FlightAware
03:33AM -33.8030 151.1500 170° South 155 178 2,900 -780 Descending FlightAware
03:34AM -33.8190 151.1540 168° South 133 153 2,600 -840 Descending FlightAware
03:34AM -33.8390 151.1600 166° South 127 146 2,100 -720 Descending FlightAware
03:34AM -33.8430 151.1610 168° South 127 146 2,100 -600 Level FlightAware
03:35AM -33.8630 151.1660 168° South 127 146 1,700 -720 Descending FlightAware
03:36AM -33.8870 151.1720 168° South 118 136 1,200 -780 Descending FlightAware
03:36AM -33.9030 151.1760 168° South 125 144 800 -720 Descending FlightAware
03:37AM -33.9230 151.1810 168° South 127 146 500 -660 Descending FlightAware
03:37AM -33.9340 151.1840 167° South 127 146 200 -1,020 Descending FlightAware
03:37AM -33.9490 151.1880 168° South 127 146 -420 Descending FlightAware
03:38AM -33.9620 151.1920 166° South 84 97  Level FlightAware
03:38AM -33.9660 151.1920 180° South 24 28  Level FlightAware
03:38AM -33.9670 151.1920 180° South 16 18  Level FlightAware